Kezdőlap
METAR-TAF:

METAR-TAF

Repülőterek :

Terrell Municipal Airport

Terrell, Texas, Amerikai Egyesült Államok

földrajzi szélesség: 32-42-49N, földrajzi hosszúság: 096-16-06W, magasság: 144 m

Jelenlegi meteorológiai megfigyelések

A jelentés 10 órával és 14 perccel ezelõtt készült, 16:53 UTC
Különbözõ irányokból fújó szél 5 kt
Hőmérséklet 31°C
Páratartalom 52%
Légköri nyomás 1022 hPa
Látótávolság: 16.1 km
Kevés felhő 4100 lábon

METAR: KTRL 211653Z AUTO VRB05KT 10SM FEW041 31/20 A3018 RMK AO2 SLP212 T03060200

Idő: 22:07 (03:07 UTC)


TAF: hiányzik

Meteorológiai megfigyelések és előrejelzések több, mint 4000 repülőtéren (METAR és TAF jelentéseket).

A térképen piros és sárga pontok jelzik az elérhető meteorológiai állomásokat.

Mozgassa az egeret a pont fölött, hogy megjelenjen az állomás neve.

Azután kattintson az időjárási megfigyelések és előrejelzések megtekintéséhez.

A térkép megváltoztatása: kattintson a fekete keresztel jelölt zöld gombra ráközelítéshez, a vonallal jelölt zöld gombra távolításhoz, vagy a zöld nyilakra a szomszédos térképek eléréséhez.


METAR-TAF: